createdAt,value
2022-10-21T00:03:27.129Z,6.47
2022-10-21T00:08:29.110Z,7.30
2022-10-21T00:13:33.675Z,7.57
2022-10-21T00:18:37.730Z,6.38
2022-10-21T00:23:40.831Z,7.57
2022-10-21T00:28:43.446Z,6.93
2022-10-21T00:33:45.124Z,6.60
2022-10-21T00:38:48.577Z,7.32
2022-10-21T00:44:02.281Z,6.93
2022-10-21T00:49:39.624Z,6.97
2022-10-21T00:54:43.196Z,7.68
2022-10-21T00:59:49.574Z,7.35
2022-10-21T01:04:54.725Z,7.38
2022-10-21T01:09:56.497Z,7.90
2022-10-21T01:15:21.950Z,7.50
2022-10-21T01:20:41.921Z,7.47
2022-10-21T01:26:19.483Z,7.95
2022-10-21T01:31:48.138Z,7.72
2022-10-21T01:37:13.586Z,7.65
2022-10-21T01:42:20.527Z,7.80
2022-10-21T01:47:32.257Z,9.02
2022-10-21T01:52:35.049Z,8.23
2022-10-21T01:57:43.910Z,8.68
2022-10-21T02:02:49.914Z,7.72
2022-10-21T02:07:51.986Z,8.02
2022-10-21T02:12:56.965Z,7.90
2022-10-21T02:18:08.595Z,7.72
2022-10-21T02:23:15.333Z,8.25
2022-10-21T02:28:18.884Z,7.40
2022-10-21T02:33:27.890Z,7.70
2022-10-21T02:38:46.755Z,7.93
2022-10-21T02:43:59.233Z,9.00
2022-10-21T02:49:00.991Z,7.80
2022-10-21T02:54:02.713Z,8.57
2022-10-21T02:59:04.343Z,8.27
2022-10-21T03:04:07.550Z,8.80
2022-10-21T03:09:09.528Z,8.88
2022-10-21T03:14:11.594Z,9.02
2022-10-21T03:19:13.717Z,8.88
2022-10-21T03:24:27.914Z,9.02
2022-10-21T03:29:30.608Z,8.38
2022-10-21T03:34:32.240Z,7.78
2022-10-21T03:39:33.944Z,8.52
2022-10-21T03:44:36.018Z,8.45
2022-10-21T03:49:37.795Z,8.02
2022-10-21T03:54:39.483Z,9.77
2022-10-21T03:59:41.351Z,10.27
2022-10-21T04:04:42.974Z,8.45
2022-10-21T04:09:44.630Z,7.60
2022-10-21T04:14:46.238Z,8.20
2022-10-21T04:19:48.058Z,8.43
2022-10-21T04:24:49.933Z,8.27
2022-10-21T04:29:51.566Z,8.50
2022-10-21T04:34:53.329Z,7.95
2022-10-21T04:39:57.410Z,8.15
2022-10-21T04:44:59.210Z,8.45
2022-10-21T04:50:00.819Z,7.38
2022-10-21T04:55:02.592Z,7.63
2022-10-21T05:00:07.503Z,7.22
2022-10-21T05:05:10.588Z,7.43
2022-10-21T05:10:12.254Z,7.72
2022-10-21T05:15:14.647Z,8.10
2022-10-21T05:20:16.575Z,7.57
2022-10-21T05:25:18.454Z,7.72
2022-10-21T05:30:20.072Z,8.60
2022-10-21T05:35:22.105Z,8.57
2022-10-21T05:40:24.194Z,8.27
2022-10-21T05:45:27.070Z,8.85
2022-10-21T05:50:28.719Z,9.35
2022-10-21T05:55:30.466Z,7.97
2022-10-21T06:00:32.510Z,8.10
2022-10-21T06:05:35.232Z,8.25
2022-10-21T06:10:36.988Z,8.70
2022-10-21T06:15:38.647Z,8.20
2022-10-21T06:20:40.254Z,8.25
2022-10-21T06:25:44.169Z,8.15
2022-10-21T06:30:47.407Z,7.63
2022-10-21T06:35:49.261Z,7.78
2022-10-21T06:40:50.865Z,8.48
2022-10-21T06:45:58.631Z,8.07
2022-10-21T06:51:09.560Z,8.15
2022-10-21T06:56:17.189Z,8.60
2022-10-21T07:01:34.897Z,8.50
2022-10-21T07:06:43.422Z,8.90
2022-10-21T07:11:45.008Z,8.75
2022-10-21T07:16:49.076Z,9.18
2022-10-21T07:21:50.895Z,8.88
2022-10-21T07:26:52.972Z,9.20
2022-10-21T07:31:54.564Z,8.73
2022-10-21T07:36:56.335Z,9.15
2022-10-21T07:41:58.420Z,9.38
2022-10-21T07:47:00.106Z,9.93
2022-10-21T07:52:02.662Z,9.30
2022-10-21T07:57:04.350Z,9.63
2022-10-21T08:02:06.143Z,8.80
2022-10-21T08:07:10.306Z,9.00
2022-10-21T08:12:15.487Z,9.98
2022-10-21T08:17:17.539Z,9.73
2022-10-21T08:22:19.775Z,9.50
2022-10-21T08:27:21.388Z,9.52
2022-10-21T08:32:23.127Z,10.63
2022-10-21T08:37:25.756Z,9.32
2022-10-21T08:42:27.984Z,9.40
2022-10-21T08:47:45.922Z,9.70
2022-10-21T08:53:13.760Z,9.43
2022-10-21T08:58:21.823Z,9.02
2022-10-21T09:03:39.151Z,8.90
2022-10-21T09:08:57.435Z,8.95
2022-10-21T09:14:24.528Z,9.68
2022-10-21T09:19:43.501Z,9.00
2022-10-21T09:25:17.600Z,8.52
2022-10-21T09:30:24.535Z,8.52
2022-10-21T09:35:48.387Z,8.43
2022-10-21T09:40:59.299Z,8.85
2022-10-21T09:46:00.999Z,9.68
2022-10-21T09:51:14.074Z,12.23
2022-10-21T09:56:24.802Z,9.93
2022-10-21T10:01:29.362Z,9.68
2022-10-21T10:06:42.666Z,9.60
2022-10-21T10:12:02.850Z,9.38
2022-10-21T10:17:31.912Z,9.35
2022-10-21T10:22:38.906Z,8.77
2022-10-21T10:27:59.816Z,9.40
2022-10-21T10:33:14.084Z,12.75
2022-10-21T10:38:42.571Z,13.10
2022-10-21T10:48:52.689Z,8.27
2022-10-21T10:54:06.522Z,8.65
2022-10-21T10:59:23.562Z,8.27
2022-10-21T11:10:02.037Z,7.80
2022-10-21T11:15:04.045Z,8.23
2022-10-21T11:20:15.785Z,8.10
2022-10-21T11:25:26.992Z,8.25
2022-10-21T11:30:36.967Z,8.73
2022-10-21T11:35:59.010Z,7.30
2022-10-21T11:41:31.769Z,7.30
2022-10-21T11:46:46.904Z,6.93
2022-10-21T11:51:48.568Z,6.75
2022-10-21T11:57:41.459Z,6.30
2022-10-21T12:03:23.736Z,6.63
2022-10-21T12:08:31.067Z,6.03
2022-10-21T12:13:38.084Z,7.13
2022-10-21T12:18:44.550Z,6.85
2022-10-21T12:23:54.047Z,7.28
2022-10-21T12:29:07.378Z,7.65
2022-10-21T12:34:11.498Z,9.05
2022-10-21T12:39:35.212Z,7.90
2022-10-21T12:44:38.150Z,8.10
2022-10-21T12:49:43.600Z,7.38
2022-10-21T12:54:58.249Z,6.20
2022-10-21T13:00:28.405Z,5.40
2022-10-21T13:05:36.517Z,5.45
2022-10-21T13:10:40.565Z,5.80
2022-10-21T13:15:46.241Z,5.50
2022-10-21T13:20:57.136Z,5.55
2022-10-21T13:26:12.334Z,4.75
2022-10-21T13:31:21.192Z,5.25
2022-10-21T13:41:43.448Z,4.80
2022-10-21T13:46:45.058Z,4.20
2022-10-21T13:51:47.097Z,4.55
2022-10-21T13:56:48.826Z,4.30
2022-10-21T14:01:53.346Z,4.65
2022-10-21T14:07:05.647Z,3.97
2022-10-21T14:12:18.249Z,4.63
2022-10-21T14:17:26.207Z,4.65
2022-10-21T14:22:31.093Z,5.03
2022-10-21T14:27:35.037Z,4.78
2022-10-21T14:32:37.661Z,4.50
2022-10-21T14:37:49.581Z,5.15
2022-10-21T14:42:53.322Z,5.18
2022-10-21T14:48:24.041Z,4.97
2022-10-21T14:53:27.841Z,5.50
2022-10-21T14:58:34.626Z,5.30
2022-10-21T15:03:58.156Z,5.32
2022-10-21T15:09:10.476Z,5.72
2022-10-21T15:14:21.007Z,6.60
2022-10-21T15:19:40.621Z,6.75
2022-10-21T15:24:45.144Z,6.22
2022-10-21T15:29:48.754Z,6.85
2022-10-21T15:34:52.081Z,6.45
2022-10-21T15:39:53.673Z,6.60
2022-10-21T15:44:55.340Z,5.70
2022-10-21T15:49:58.330Z,6.38
2022-10-21T15:55:00.094Z,6.35
2022-10-21T16:00:02.242Z,6.18
2022-10-21T16:05:06.390Z,6.18
2022-10-21T16:10:22.405Z,5.88
2022-10-21T16:15:25.134Z,6.57
2022-10-21T16:20:30.249Z,6.10
2022-10-21T16:25:33.486Z,6.30
2022-10-21T16:30:37.521Z,6.95
2022-10-21T16:35:39.152Z,8.48
2022-10-21T16:40:40.921Z,8.02
2022-10-21T16:45:43.998Z,9.88
2022-10-21T16:50:46.479Z,7.85
2022-10-21T16:55:48.371Z,6.35
2022-10-21T17:00:50.954Z,5.90
2022-10-21T17:05:52.679Z,6.07
2022-10-21T17:10:55.065Z,5.97
2022-10-21T17:15:56.654Z,5.63
2022-10-21T17:20:58.451Z,6.30
2022-10-21T17:26:00.194Z,6.68
2022-10-21T17:31:01.911Z,6.30
2022-10-21T17:36:03.763Z,6.75
2022-10-21T17:41:06.184Z,7.25
2022-10-21T17:46:09.932Z,6.53
2022-10-21T17:51:11.723Z,11.32
2022-10-21T17:56:13.553Z,17.60
2022-10-21T18:01:15.264Z,20.88
2022-10-21T18:06:17.088Z,12.77
2022-10-21T18:11:20.618Z,7.70
2022-10-21T18:16:23.767Z,7.93
2022-10-21T18:21:25.600Z,8.52
2022-10-21T18:26:30.716Z,8.32
2022-10-21T18:31:35.551Z,8.70
2022-10-21T18:36:37.411Z,8.98
2022-10-21T18:41:39.630Z,9.88
2022-10-21T18:46:43.086Z,10.23
2022-10-21T18:51:45.386Z,9.43
2022-10-21T18:56:48.595Z,9.73
2022-10-21T19:01:50.770Z,9.57
2022-10-21T19:06:54.734Z,10.20
2022-10-21T19:11:56.577Z,9.55
2022-10-21T19:16:58.937Z,9.13
2022-10-21T19:22:00.621Z,15.20
2022-10-21T19:27:02.306Z,11.05
2022-10-21T19:32:04.080Z,9.32
2022-10-21T19:37:06.772Z,9.77
2022-10-21T19:42:08.453Z,10.82
2022-10-21T19:47:10.183Z,9.60
2022-10-21T19:52:11.758Z,10.07
2022-10-21T19:57:13.535Z,10.23
2022-10-21T20:02:15.338Z,12.60
2022-10-21T20:07:16.981Z,13.20
2022-10-21T20:12:19.202Z,13.85
2022-10-21T20:17:20.912Z,10.25
2022-10-21T20:22:24.613Z,11.88
2022-10-21T20:27:26.725Z,19.83
2022-10-21T20:32:28.337Z,16.17
2022-10-21T20:37:30.006Z,11.60
2022-10-21T20:42:31.646Z,11.15
2022-10-21T20:47:33.234Z,10.88
2022-10-21T20:52:34.995Z,11.27
2022-10-21T20:57:40.364Z,12.50
2022-10-21T21:02:42.221Z,12.32
2022-10-21T21:07:43.853Z,11.48
2022-10-21T21:12:45.483Z,11.23
2022-10-21T21:17:51.012Z,11.10
2022-10-21T21:22:52.967Z,10.98
2022-10-21T21:27:54.563Z,11.10
2022-10-21T21:32:56.207Z,10.73
2022-10-21T21:37:58.085Z,10.90
2022-10-21T21:42:59.671Z,11.15
2022-10-21T21:48:01.438Z,11.90
2022-10-21T21:53:03.097Z,11.70
2022-10-21T21:58:05.482Z,11.68
2022-10-21T22:03:07.150Z,12.63
2022-10-21T22:08:10.101Z,11.57
2022-10-21T22:13:12.802Z,11.85
2022-10-21T22:18:14.993Z,13.02
2022-10-21T22:23:17.270Z,12.45
2022-10-21T22:28:18.936Z,13.18
2022-10-21T22:33:21.033Z,12.63
2022-10-21T22:38:23.247Z,12.80
2022-10-21T22:43:26.204Z,12.55
2022-10-21T22:48:27.892Z,12.57
2022-10-21T22:53:29.546Z,12.68
2022-10-21T22:58:31.609Z,12.52
2022-10-21T23:03:33.330Z,11.70
2022-10-21T23:08:35.160Z,12.23
2022-10-21T23:13:36.819Z,11.88
2022-10-21T23:18:38.481Z,12.45
2022-10-21T23:23:40.221Z,12.93
2022-10-21T23:28:42.022Z,11.95
2022-10-21T23:33:43.692Z,12.43
2022-10-21T23:38:45.417Z,11.80
2022-10-21T23:43:47.057Z,11.88
2022-10-21T23:48:48.756Z,12.18
2022-10-21T23:53:50.483Z,12.52
2022-10-21T23:58:52.814Z,11.82
